Time;durP1;ratioP1;P1;durP2;ratioP2;P2;SDS_P1;SDS_P2;PMS_P1;PMS_P2;Temp;Humidity;BMP_temperature;BMP_pressure;BME280_temperature;BME280_humidity;BME280_pressure;Samples;Min_cycle;Max_cycle;Signal;HPM_P1;HPM_P2
2023/03/06 00:02:18;;;;;;;20.57;13.27;;;;;;;;;;4992899;28;21027;-42
2023/03/06 00:04:44;;;;;;;21.30;12.80;;;;;;;;;;4994706;28;20430;-42
2023/03/06 00:07:10;;;;;;;26.77;13.00;;;;;;;;;;4994484;28;20676;-42
2023/03/06 00:09:35;;;;;;;21.87;13.77;;;;;;;;;;4994548;28;20416;-43
2023/03/06 00:12:05;;;;;;;20.77;11.87;;;;;;;;;;4994424;28;20436;-43
2023/03/06 00:14:31;;;;;;;18.10;11.52;;;;;;;;;;4993539;28;20999;-43
2023/03/06 00:16:57;;;;;;;21.10;12.07;;;;;;;;;;4994511;28;20254;-42
2023/03/06 00:19:23;;;;;;;20.33;11.77;;;;;;;;;;4994432;28;20974;-42
2023/03/06 00:21:49;;;;;;;23.57;13.27;;;;;;;;;;4993922;28;20435;-43
2023/03/06 00:24:15;;;;;;;21.77;13.52;;;;;;;;;;4994566;28;20416;-42
2023/03/06 00:26:42;;;;;;;22.67;12.40;;;;;;;;;;4994868;28;20548;-43
2023/03/06 00:29:08;;;;;;;23.10;12.40;;;;;;;;;;4986223;28;20193;-42
2023/03/06 00:31:34;;;;;;;26.70;13.73;;;;;;;;;;4993742;28;20197;-43
2023/03/06 00:34:01;;;;;;;22.38;13.15;;;;;;;;;;4994281;28;20515;-42
2023/03/06 00:36:27;;;;;;;24.77;14.18;;;;;;;;;;4994273;28;20181;-44
2023/03/06 00:38:53;;;;;;;25.57;14.60;;;;;;;;;;4994143;28;20196;-42
2023/03/06 00:41:19;;;;;;;29.43;16.53;;;;;;;;;;4993450;28;20535;-43
2023/03/06 00:43:45;;;;;;;24.77;13.75;;;;;;;;;;4992346;28;20908;-42
2023/03/06 00:46:11;;;;;;;23.67;14.50;;;;;;;;;;4993310;28;20188;-43
2023/03/06 00:48:37;;;;;;;25.67;14.80;;;;;;;;;;4993899;28;20468;-43
2023/03/06 00:51:03;;;;;;;29.10;16.70;;;;;;;;;;4993310;28;20459;-43
2023/03/06 00:53:29;;;;;;;23.48;13.30;;;;;;;;;;4994472;28;20896;-43
2023/03/06 00:55:55;;;;;;;28.93;16.03;;;;;;;;;;4993640;28;20185;-43
2023/03/06 00:58:21;;;;;;;25.30;14.67;;;;;;;;;;4993809;28;20459;-43
2023/03/06 01:00:47;;;;;;;31.47;16.90;;;;;;;;;;4992981;28;20478;-45
2023/03/06 01:03:13;;;;;;;30.90;17.23;;;;;;;;;;4993870;28;20751;-42
2023/03/06 01:05:39;;;;;;;29.40;16.52;;;;;;;;;;4993690;28;20443;-42
2023/03/06 01:08:07;;;;;;;39.65;19.90;;;;;;;;;;4993476;28;20196;-43
2023/03/06 01:10:33;;;;;;;29.75;16.95;;;;;;;;;;4992934;28;20423;-43
2023/03/06 01:12:59;;;;;;;34.88;19.27;;;;;;;;;;4993216;28;20264;-43
2023/03/06 01:15:25;;;;;;;37.00;19.63;;;;;;;;;;4991297;28;20640;-42
2023/03/06 01:17:53;;;;;;;43.23;19.90;;;;;;;;;;4993472;28;20966;-43
2023/03/06 01:20:19;;;;;;;39.30;20.70;;;;;;;;;;4992742;28;20428;-42
2023/03/06 01:22:45;;;;;;;37.50;20.33;;;;;;;;;;4993310;28;20697;-43
2023/03/06 01:25:11;;;;;;;39.40;22.63;;;;;;;;;;4993293;28;20431;-43
2023/03/06 01:27:38;;;;;;;35.90;19.73;;;;;;;;;;4993119;28;20553;-44
2023/03/06 01:30:04;;;;;;;36.95;20.95;;;;;;;;;;4992808;28;20405;-42
2023/03/06 01:32:30;;;;;;;39.55;20.08;;;;;;;;;;4988203;28;20206;-43
2023/03/06 01:34:57;;;;;;;36.50;20.20;;;;;;;;;;4992586;28;20335;-42
2023/03/06 01:37:24;;;;;;;32.47;19.20;;;;;;;;;;4992089;28;20427;-42
2023/03/06 01:39:50;;;;;;;32.55;19.00;;;;;;;;;;4992620;28;20203;-43
2023/03/06 01:42:16;;;;;;;36.50;18.67;;;;;;;;;;4992319;28;20555;-44
2023/03/06 01:45:01;;;;;;;41.10;21.13;;;;;;;;;;4992951;28;20411;-42
2023/03/06 01:47:28;;;;;;;37.63;19.20;;;;;;;;;;4987570;28;20455;-43
2023/03/06 01:49:54;;;;;;;34.28;18.33;;;;;;;;;;4992128;28;20231;-42
2023/03/06 01:52:25;;;;;;;36.83;18.83;;;;;;;;;;4992222;28;20588;-42
2023/03/06 01:54:56;;;;;;;30.50;16.67;;;;;;;;;;4992760;28;20191;-43
2023/03/06 01:57:23;;;;;;;30.17;17.30;;;;;;;;;;4992683;28;20185;-42
2023/03/06 01:59:53;;;;;;;27.92;16.15;;;;;;;;;;4992666;28;20209;-43
2023/03/06 02:02:20;;;;;;;20.60;12.63;;;;;;;;;;4991110;28;20232;-43
2023/03/06 02:04:46;;;;;;;22.40;14.10;;;;;;;;;;4991936;28;20216;-42
2023/03/06 02:07:13;;;;;;;21.67;13.88;;;;;;;;;;4992510;28;20276;-43
2023/03/06 02:09:38;;;;;;;22.30;13.57;;;;;;;;;;4992949;28;20181;-43
2023/03/06 02:12:09;;;;;;;21.17;13.37;;;;;;;;;;4991872;28;20195;-42
2023/03/06 02:14:35;;;;;;;22.35;13.52;;;;;;;;;;4987430;28;20487;-44
2023/03/06 02:17:02;;;;;;;20.80;12.30;;;;;;;;;;4988633;28;20220;-44
2023/03/06 02:19:28;;;;;;;19.17;12.85;;;;;;;;;;4991591;28;20552;-44
2023/03/06 02:21:54;;;;;;;18.80;11.17;;;;;;;;;;4991678;28;20215;-44
2023/03/06 02:24:31;;;;;;;16.30;11.70;;;;;;;;;;4991200;28;20928;-44
2023/03/06 02:26:57;;;;;;;27.83;14.15;;;;;;;;;;4991892;28;20184;-45
2023/03/06 02:29:25;;;;;;;19.98;12.38;;;;;;;;;;4992231;28;20293;-44
2023/03/06 02:31:52;;;;;;;24.70;14.85;;;;;;;;;;4991502;28;20196;-44
2023/03/06 02:34:18;;;;;;;20.63;13.43;;;;;;;;;;4992445;28;20210;-44
2023/03/06 02:36:45;;;;;;;24.07;14.13;;;;;;;;;;4991908;28;20187;-44
2023/03/06 02:39:12;;;;;;;29.73;15.73;;;;;;;;;;4992216;28;20923;-44
2023/03/06 02:41:38;;;;;;;25.20;15.65;;;;;;;;;;4991651;28;20287;-44
2023/03/06 02:44:04;;;;;;;24.65;14.73;;;;;;;;;;4992157;28;20176;-44
2023/03/06 02:46:30;;;;;;;28.50;15.67;;;;;;;;;;4991091;28;20653;-44
2023/03/06 02:48:56;;;;;;;27.50;15.23;;;;;;;;;;4991326;28;20475;-44
2023/03/06 02:51:22;;;;;;;27.00;16.15;;;;;;;;;;4991456;28;20830;-44
2023/03/06 02:53:48;;;;;;;28.92;16.77;;;;;;;;;;4992229;28;20182;-45
2023/03/06 02:56:14;;;;;;;26.80;15.40;;;;;;;;;;4992154;28;20319;-44
2023/03/06 02:58:40;;;;;;;29.55;16.38;;;;;;;;;;4992023;28;20424;-44
2023/03/06 03:01:07;;;;;;;26.58;16.13;;;;;;;;;;4990276;28;20276;-44
2023/03/06 03:03:33;;;;;;;26.50;16.42;;;;;;;;;;4992013;28;20675;-44
2023/03/06 03:06:00;;;;;;;32.83;16.80;;;;;;;;;;4991974;28;20528;-44
2023/03/06 03:08:26;;;;;;;30.02;18.17;;;;;;;;;;4992007;28;20284;-44
2023/03/06 03:10:52;;;;;;;31.38;16.85;;;;;;;;;;4991638;28;20223;-45
2023/03/06 03:13:18;;;;;;;28.17;17.17;;;;;;;;;;4992009;28;20177;-44
2023/03/06 03:15:44;;;;;;;27.17;16.63;;;;;;;;;;4991904;28;20441;-44
2023/03/06 03:18:11;;;;;;;25.85;16.75;;;;;;;;;;4990968;28;20270;-44
2023/03/06 03:20:37;;;;;;;35.80;17.60;;;;;;;;;;4990507;28;20212;-44
2023/03/06 03:23:03;;;;;;;35.95;19.05;;;;;;;;;;4991846;28;20209;-44
2023/03/06 03:25:29;;;;;;;28.63;16.67;;;;;;;;;;4991949;28;20256;-44
2023/03/06 03:27:55;;;;;;;34.90;17.20;;;;;;;;;;4991677;28;20447;-44
2023/03/06 03:30:21;;;;;;;31.30;16.97;;;;;;;;;;4991221;28;20443;-44
2023/03/06 03:32:46;;;;;;;30.20;18.30;;;;;;;;;;4991578;28;20490;-44
2023/03/06 03:35:12;;;;;;;36.17;18.17;;;;;;;;;;4991948;28;20446;-44
2023/03/06 03:37:38;;;;;;;38.73;18.50;;;;;;;;;;4994531;28;20415;-44
2023/03/06 03:40:06;;;;;;;38.03;18.57;;;;;;;;;;4994949;28;20484;-44
2023/03/06 03:42:31;;;;;;;37.92;19.48;;;;;;;;;;4995159;28;20946;-44
2023/03/06 03:44:57;;;;;;;34.20;18.60;;;;;;;;;;4995221;28;20193;-44
2023/03/06 03:47:23;;;;;;;34.17;18.40;;;;;;;;;;4994234;28;20483;-44
2023/03/06 03:49:49;;;;;;;38.17;19.93;;;;;;;;;;4994564;28;20443;-45
2023/03/06 03:52:15;;;;;;;38.37;18.60;;;;;;;;;;4994505;28;20995;-45
2023/03/06 03:54:41;;;;;;;38.83;20.77;;;;;;;;;;4995085;28;20853;-45
2023/03/06 03:57:07;;;;;;;39.00;20.47;;;;;;;;;;4994872;28;20461;-44
2023/03/06 03:59:33;;;;;;;40.13;20.57;;;;;;;;;;4995071;28;20475;-44
2023/03/06 04:01:59;;;;;;;37.53;18.30;;;;;;;;;;4994193;28;20522;-45
2023/03/06 04:04:25;;;;;;;33.93;19.07;;;;;;;;;;4994985;28;20701;-45
2023/03/06 04:06:51;;;;;;;38.97;19.20;;;;;;;;;;4994925;28;20412;-44
2023/03/06 04:09:17;;;;;;;35.37;19.40;;;;;;;;;;4994697;28;20582;-44
2023/03/06 04:11:43;;;;;;;35.40;19.10;;;;;;;;;;4993931;28;20483;-45
2023/03/06 04:14:09;;;;;;;33.73;18.07;;;;;;;;;;4994795;28;20431;-44
2023/03/06 04:16:35;;;;;;;33.50;19.27;;;;;;;;;;4993720;28;20432;-45
2023/03/06 04:19:01;;;;;;;36.43;17.83;;;;;;;;;;4994543;28;20416;-44
2023/03/06 04:21:28;;;;;;;39.93;19.70;;;;;;;;;;4993989;28;20435;-45
2023/03/06 04:23:54;;;;;;;40.00;20.65;;;;;;;;;;4994621;28;20412;-44
2023/03/06 04:26:20;;;;;;;37.90;19.13;;;;;;;;;;4995028;28;20177;-44
2023/03/06 04:28:46;;;;;;;31.70;18.80;;;;;;;;;;4994336;28;20468;-44
2023/03/06 04:31:12;;;;;;;39.57;18.97;;;;;;;;;;4993710;28;20429;-44
2023/03/06 04:33:38;;;;;;;28.27;16.80;;;;;;;;;;4994159;28;20468;-45
2023/03/06 04:36:05;;;;;;;35.05;17.98;;;;;;;;;;4994257;28;20649;-44
2023/03/06 04:38:31;;;;;;;29.63;15.93;;;;;;;;;;4994294;28;20541;-44
2023/03/06 04:40:57;;;;;;;29.30;14.77;;;;;;;;;;4993443;28;20188;-44
2023/03/06 04:43:23;;;;;;;31.50;15.63;;;;;;;;;;4994209;28;20458;-44
2023/03/06 04:45:49;;;;;;;27.27;14.10;;;;;;;;;;4993318;28;20500;-44
2023/03/06 04:48:16;;;;;;;29.20;14.53;;;;;;;;;;4992694;28;20587;-44
2023/03/06 04:50:42;;;;;;;22.00;13.27;;;;;;;;;;4993430;28;20416;-44
2023/03/06 04:53:09;;;;;;;26.90;14.67;;;;;;;;;;4994013;28;20204;-45
2023/03/06 04:55:35;;;;;;;24.73;14.00;;;;;;;;;;4993924;28;20503;-45
2023/03/06 04:58:01;;;;;;;22.30;13.00;;;;;;;;;;4993837;28;20343;-44
2023/03/06 05:00:30;;;;;;;20.00;12.48;;;;;;;;;;4993262;28;20410;-44
2023/03/06 05:02:56;;;;;;;30.70;15.75;;;;;;;;;;4993701;28;20196;-44
2023/03/06 05:05:22;;;;;;;25.70;13.68;;;;;;;;;;4993834;28;20191;-44
2023/03/06 05:07:48;;;;;;;30.30;14.80;;;;;;;;;;4993703;28;20592;-44
2023/03/06 05:10:15;;;;;;;24.97;14.73;;;;;;;;;;4992889;28;20494;-44
2023/03/06 05:12:42;;;;;;;29.13;13.85;;;;;;;;;;4993758;28;20432;-44
2023/03/06 05:15:08;;;;;;;23.83;14.90;;;;;;;;;;4993847;28;20182;-44
2023/03/06 05:17:34;;;;;;;34.65;15.27;;;;;;;;;;4991741;28;20193;-44
2023/03/06 05:20:00;;;;;;;28.08;16.27;;;;;;;;;;4991698;28;20183;-44
2023/03/06 05:22:26;;;;;;;29.90;15.07;;;;;;;;;;4992807;28;20288;-44
2023/03/06 05:24:52;;;;;;;24.93;15.90;;;;;;;;;;4993180;28;20424;-45
2023/03/06 05:27:18;;;;;;;27.10;14.35;;;;;;;;;;4992823;28;20933;-45
2023/03/06 05:29:44;;;;;;;27.27;14.90;;;;;;;;;;4993192;28;20177;-44
2023/03/06 05:32:10;;;;;;;28.53;15.97;;;;;;;;;;4992612;28;20498;-44
2023/03/06 05:34:36;;;;;;;26.85;15.05;;;;;;;;;;4993133;28;20423;-45
2023/03/06 05:37:02;;;;;;;27.80;15.57;;;;;;;;;;4993095;28;20185;-45
2023/03/06 05:39:28;;;;;;;26.97;14.00;;;;;;;;;;4992709;28;21203;-45
2023/03/06 05:41:54;;;;;;;25.77;15.95;;;;;;;;;;4992405;28;20503;-44
2023/03/06 05:44:22;;;;;;;31.93;16.27;;;;;;;;;;4991611;28;20641;-44
2023/03/06 05:46:48;;;;;;;26.27;14.65;;;;;;;;;;4991204;28;20955;-45
2023/03/06 05:49:14;;;;;;;28.70;16.90;;;;;;;;;;4992239;28;20205;-44
2023/03/06 05:51:40;;;;;;;32.20;16.35;;;;;;;;;;4992231;28;20272;-45
2023/03/06 05:54:06;;;;;;;26.03;14.87;;;;;;;;;;4993301;28;20197;-45
2023/03/06 05:56:32;;;;;;;27.77;15.67;;;;;;;;;;4992741;28;20412;-44
2023/03/06 05:58:58;;;;;;;29.77;16.00;;;;;;;;;;4992970;28;20414;-45
2023/03/06 06:01:24;;;;;;;31.93;17.43;;;;;;;;;;4991413;28;20442;-45
2023/03/06 06:03:50;;;;;;;29.93;17.63;;;;;;;;;;4992875;28;20416;-45
2023/03/06 06:06:17;;;;;;;28.77;17.17;;;;;;;;;;4992691;28;20439;-44
2023/03/06 06:08:43;;;;;;;30.15;17.08;;;;;;;;;;4992412;28;20212;-44
2023/03/06 06:11:10;;;;;;;34.42;18.15;;;;;;;;;;4991950;28;20181;-44
2023/03/06 06:13:37;;;;;;;30.45;17.35;;;;;;;;;;4992670;28;20661;-44
2023/03/06 06:16:10;;;;;;;33.75;18.23;;;;;;;;;;4992827;28;20180;-44
2023/03/06 06:18:36;;;;;;;36.50;18.33;;;;;;;;;;4990464;28;20259;-44
2023/03/06 06:21:06;;;;;;;37.17;18.00;;;;;;;;;;4991752;28;20812;-44
2023/03/06 06:23:32;;;;;;;30.73;17.20;;;;;;;;;;4992482;28;20187;-44
2023/03/06 06:26:02;;;;;;;32.95;16.70;;;;;;;;;;4992440;28;20181;-44
2023/03/06 06:28:29;;;;;;;29.58;16.85;;;;;;;;;;4992426;28;20254;-44
2023/03/06 06:30:55;;;;;;;40.35;19.13;;;;;;;;;;4991666;28;20177;-44
2023/03/06 06:33:21;;;;;;;34.20;17.50;;;;;;;;;;4995418;28;20776;-44
2023/03/06 06:35:47;;;;;;;36.45;16.67;;;;;;;;;;4991419;28;20431;-44
2023/03/06 06:38:13;;;;;;;32.10;16.70;;;;;;;;;;4989012;28;20660;-44
2023/03/06 06:40:39;;;;;;;28.58;16.30;;;;;;;;;;4991428;28;20404;-44
2023/03/06 06:43:05;;;;;;;27.60;14.67;;;;;;;;;;4986856;28;20251;-44
2023/03/06 06:45:31;;;;;;;28.57;16.83;;;;;;;;;;4992427;28;20420;-44
2023/03/06 06:47:57;;;;;;;26.98;14.73;;;;;;;;;;4995435;28;20502;-44
2023/03/06 06:50:23;;;;;;;24.60;15.30;;;;;;;;;;4991443;28;20748;-44
2023/03/06 06:52:49;;;;;;;27.30;15.30;;;;;;;;;;4992123;28;20432;-44
2023/03/06 06:55:15;;;;;;;27.23;14.83;;;;;;;;;;4992148;28;20408;-45
2023/03/06 06:57:41;;;;;;;27.23;15.68;;;;;;;;;;4992191;28;20411;-45
2023/03/06 07:00:08;;;;;;;28.63;16.13;;;;;;;;;;4991571;28;20622;-45
2023/03/06 07:02:34;;;;;;;32.53;16.98;;;;;;;;;;4991986;28;20296;-45
2023/03/06 07:05:00;;;;;;;29.00;14.40;;;;;;;;;;4992230;28;20275;-44
2023/03/06 07:07:26;;;;;;;27.37;15.53;;;;;;;;;;4991861;28;20420;-44
2023/03/06 07:09:52;;;;;;;34.08;18.27;;;;;;;;;;4992022;28;20867;-44
2023/03/06 07:12:17;;;;;;;34.50;18.33;;;;;;;;;;4991830;28;20220;-45
2023/03/06 07:14:43;;;;;;;31.17;16.67;;;;;;;;;;4995795;28;20479;-45
2023/03/06 07:17:09;;;;;;;34.80;19.00;;;;;;;;;;4995694;28;20814;-45
2023/03/06 07:19:36;;;;;;;34.80;17.45;;;;;;;;;;4995731;28;20412;-45
2023/03/06 07:22:03;;;;;;;31.45;16.08;;;;;;;;;;4994971;28;20212;-45
2023/03/06 07:24:29;;;;;;;37.53;16.60;;;;;;;;;;4995772;28;20179;-44
2023/03/06 07:26:55;;;;;;;32.10;16.03;;;;;;;;;;4995677;28;20188;-45
2023/03/06 07:29:21;;;;;;;34.37;19.13;;;;;;;;;;4995538;28;20557;-45
2023/03/06 07:31:47;;;;;;;32.30;15.50;;;;;;;;;;4994776;28;20954;-45
2023/03/06 07:34:13;;;;;;;35.07;19.57;;;;;;;;;;4995552;28;20895;-44
2023/03/06 07:36:40;;;;;;;34.22;16.35;;;;;;;;;;4991629;28;20419;-45
2023/03/06 07:39:06;;;;;;;40.70;17.77;;;;;;;;;;4995314;28;20205;-44
2023/03/06 07:41:33;;;;;;;41.17;16.85;;;;;;;;;;4992877;28;20208;-44
2023/03/06 07:43:59;;;;;;;33.35;16.75;;;;;;;;;;4994426;28;20184;-45
2023/03/06 07:46:25;;;;;;;29.98;17.00;;;;;;;;;;4995740;28;20272;-45
2023/03/06 07:48:51;;;;;;;31.77;15.43;;;;;;;;;;4995045;28;20681;-44
2023/03/06 07:51:18;;;;;;;30.00;15.20;;;;;;;;;;4994682;28;20271;-44
2023/03/06 07:53:44;;;;;;;35.08;17.25;;;;;;;;;;4995145;28;20503;-44
2023/03/06 07:56:11;;;;;;;25.02;14.25;;;;;;;;;;4995110;28;20442;-44
2023/03/06 07:58:38;;;;;;;37.75;14.35;;;;;;;;;;4995117;28;20192;-45
2023/03/06 08:01:04;;;;;;;31.52;16.20;;;;;;;;;;4994220;28;20260;-44
2023/03/06 08:03:31;;;;;;;31.13;14.60;;;;;;;;;;4994976;28;20191;-44
2023/03/06 08:06:14;;;;;;;34.65;16.88;;;;;;;;;;4994779;28;20177;-44
2023/03/06 08:08:41;;;;;;;34.78;15.75;;;;;;;;;;4994785;28;20193;-44
2023/03/06 08:11:08;;;;;;;32.90;16.58;;;;;;;;;;4994261;28;20181;-44
2023/03/06 08:13:34;;;;;;;32.47;16.35;;;;;;;;;;4993663;28;20184;-44
2023/03/06 08:16:00;;;;;;;32.20;18.15;;;;;;;;;;4993897;28;20705;-44
2023/03/06 08:18:27;;;;;;;41.53;17.13;;;;;;;;;;4994202;28;20267;-44
2023/03/06 08:21:02;;;;;;;33.20;14.77;;;;;;;;;;4992959;28;20420;-45
2023/03/06 08:23:29;;;;;;;35.13;17.80;;;;;;;;;;4992922;28;20185;-44
2023/03/06 08:25:59;;;;;;;41.65;18.33;;;;;;;;;;4993560;28;20180;-44
2023/03/06 08:28:25;;;;;;;37.55;17.65;;;;;;;;;;4993727;28;20209;-44
2023/03/06 08:30:51;;;;;;;38.17;17.25;;;;;;;;;;4992962;28;20184;-44
2023/03/06 08:33:17;;;;;;;32.90;16.10;;;;;;;;;;4993549;28;20207;-44
2023/03/06 08:35:43;;;;;;;33.10;16.70;;;;;;;;;;4994414;28;20419;-45
2023/03/06 08:38:09;;;;;;;30.55;16.08;;;;;;;;;;4994261;28;20404;-44
2023/03/06 08:40:35;;;;;;;35.80;16.00;;;;;;;;;;4993480;28;20192;-44
2023/03/06 08:43:01;;;;;;;32.43;14.90;;;;;;;;;;4993277;28;20452;-44
2023/03/06 08:45:27;;;;;;;32.07;16.10;;;;;;;;;;4993758;28;20494;-44
2023/03/06 08:47:53;;;;;;;27.77;14.87;;;;;;;;;;4994049;28;20490;-45
2023/03/06 08:50:19;;;;;;;24.60;13.97;;;;;;;;;;4993350;28;20427;-44
2023/03/06 08:52:45;;;;;;;29.30;14.32;;;;;;;;;;4993941;28;20840;-44
2023/03/06 08:55:11;;;;;;;26.93;12.77;;;;;;;;;;4994139;28;20196;-45
2023/03/06 08:57:37;;;;;;;22.65;12.80;;;;;;;;;;4994198;28;20470;-44
2023/03/06 09:00:07;;;;;;;27.10;13.23;;;;;;;;;;4993707;28;20185;-44
2023/03/06 09:02:33;;;;;;;27.67;13.50;;;;;;;;;;4993832;28;20935;-44
2023/03/06 09:05:00;;;;;;;28.73;13.20;;;;;;;;;;4993948;28;20185;-45
2023/03/06 09:07:26;;;;;;;22.67;12.60;;;;;;;;;;4993709;28;20495;-45
2023/03/06 09:09:56;;;;;;;25.55;12.73;;;;;;;;;;4993526;28;20199;-45
2023/03/06 09:12:22;;;;;;;25.35;12.55;;;;;;;;;;4991953;28;20201;-44
2023/03/06 09:14:48;;;;;;;21.08;11.10;;;;;;;;;;4992546;28;20680;-45
2023/03/06 09:17:13;;;;;;;24.93;14.23;;;;;;;;;;4998896;28;20177;-45
2023/03/06 09:19:39;;;;;;;23.17;14.57;;;;;;;;;;4993563;28;20495;-44
2023/03/06 09:22:05;;;;;;;26.53;14.17;;;;;;;;;;4992667;28;20439;-44
2023/03/06 09:24:31;;;;;;;26.20;13.40;;;;;;;;;;4993419;28;20792;-45
2023/03/06 09:26:57;;;;;;;22.70;12.37;;;;;;;;;;4993067;28;20864;-45
2023/03/06 09:29:23;;;;;;;27.50;13.50;;;;;;;;;;4992897;28;20467;-45
2023/03/06 09:31:49;;;;;;;29.13;14.50;;;;;;;;;;4992644;28;20436;-45
2023/03/06 09:34:15;;;;;;;26.37;13.37;;;;;;;;;;4993290;28;20442;-43
2023/03/06 09:36:42;;;;;;;27.02;14.02;;;;;;;;;;4993652;28;20425;-43
2023/03/06 09:39:08;;;;;;;24.95;13.18;;;;;;;;;;4992912;28;20288;-43
2023/03/06 09:41:39;;;;;;;32.55;15.73;;;;;;;;;;4991484;28;20698;-43
2023/03/06 09:44:13;;;;;;;26.85;15.00;;;;;;;;;;4993083;28;20181;-44
2023/03/06 09:46:48;;;;;;;31.30;14.35;;;;;;;;;;4993474;28;20185;-44
2023/03/06 09:49:17;;;;;;;32.42;15.35;;;;;;;;;;4985667;28;20211;-43
2023/03/06 09:52:02;;;;;;;28.30;13.80;;;;;;;;;;4990265;28;20778;-43
2023/03/06 09:54:34;;;;;;;29.33;14.68;;;;;;;;;;4988285;28;20177;-45
2023/03/06 09:57:00;;;;;;;41.75;16.85;;;;;;;;;;4992914;28;20181;-45
2023/03/06 09:59:27;;;;;;;28.38;14.32;;;;;;;;;;4993304;28;20570;-45
2023/03/06 10:01:58;;;;;;;28.75;15.20;;;;;;;;;;4992718;28;20208;-45
2023/03/06 10:04:49;;;;;;;35.20;17.77;;;;;;;;;;4993422;28;20181;-46
2023/03/06 10:07:35;;;;;;;31.25;16.58;;;;;;;;;;4988279;28;20184;-45
2023/03/06 10:10:06;;;;;;;34.50;16.00;;;;;;;;;;4992987;28;20247;-46
2023/03/06 10:12:38;;;;;;;32.33;15.40;;;;;;;;;;4991644;28;20200;-45
2023/03/06 10:15:04;;;;;;;36.50;17.15;;;;;;;;;;4992415;28;20239;-47
2023/03/06 10:17:34;;;;;;;33.40;16.13;;;;;;;;;;4992899;28;20177;-47
2023/03/06 10:20:00;;;;;;;37.33;19.17;;;;;;;;;;4992668;28;20745;-43
2023/03/06 10:22:42;;;;;;;38.90;17.50;;;;;;;;;;4992521;28;20665;-45
2023/03/06 10:25:17;;;;;;;33.40;17.55;;;;;;;;;;4992983;28;20220;-45
2023/03/06 10:27:46;;;;;;;38.90;17.58;;;;;;;;;;4992815;28;20703;-45
2023/03/06 10:30:18;;;;;;;36.58;18.27;;;;;;;;;;4992089;28;20240;-46
2023/03/06 10:32:53;;;;;;;37.15;18.50;;;;;;;;;;4992629;28;20201;-47
2023/03/06 10:35:39;;;;;;;33.78;16.98;;;;;;;;;;4992866;28;20183;-46
2023/03/06 10:38:19;;;;;;;37.10;19.20;;;;;;;;;;4992666;28;20191;-47
2023/03/06 10:41:06;;;;;;;39.67;21.65;;;;;;;;;;4991133;28;20200;-46
2023/03/06 10:43:32;;;;;;;40.55;18.73;;;;;;;;;;4992630;28;20177;-45
2023/03/06 10:45:58;;;;;;;38.63;19.67;;;;;;;;;;4992781;28;20490;-46
2023/03/06 10:48:25;;;;;;;40.92;21.05;;;;;;;;;;4999578;28;20215;-45
2023/03/06 10:50:53;;;;;;;33.25;18.90;;;;;;;;;;4998655;28;20231;-46
2023/03/06 10:53:27;;;;;;;33.83;19.17;;;;;;;;;;5000108;28;20168;-45
2023/03/06 10:55:58;;;;;;;35.42;21.75;;;;;;;;;;4999711;28;20715;-47
2023/03/06 10:58:25;;;;;;;35.03;20.17;;;;;;;;;;4993435;28;20184;-44
2023/03/06 11:01:10;;;;;;;37.20;21.50;;;;;;;;;;4998285;28;20428;-47
2023/03/06 11:03:36;;;;;;;35.33;19.83;;;;;;;;;;4999185;28;20945;-45
2023/03/06 11:06:05;;;;;;;35.33;19.67;;;;;;;;;;4999641;28;20773;-46
2023/03/06 11:08:31;;;;;;;32.80;18.20;;;;;;;;;;4999495;28;20462;-45
2023/03/06 11:11:00;;;;;;;36.73;19.77;;;;;;;;;;4998494;28;20181;-45
2023/03/06 11:13:28;;;;;;;33.13;18.25;;;;;;;;;;5000198;28;20411;-45
2023/03/06 11:15:59;;;;;;;34.58;21.40;;;;;;;;;;4999105;28;20695;-45
2023/03/06 11:18:27;;;;;;;37.95;19.42;;;;;;;;;;4999867;28;20256;-44
2023/03/06 11:20:54;;;;;;;34.28;19.33;;;;;;;;;;4998338;28;20176;-46
2023/03/06 11:23:24;;;;;;;33.65;17.88;;;;;;;;;;4998840;28;20188;-45
2023/03/06 11:25:55;;;;;;;38.50;20.02;;;;;;;;;;4999020;28;20195;-45
2023/03/06 11:28:27;;;;;;;26.67;14.45;;;;;;;;;;4998815;28;20609;-47
2023/03/06 11:30:56;;;;;;;23.00;13.85;;;;;;;;;;4998415;28;20196;-45
2023/03/06 11:33:30;;;;;;;22.23;12.07;;;;;;;;;;4998801;28;20602;-47
2023/03/06 11:35:59;;;;;;;18.30;11.40;;;;;;;;;;4998434;28;20419;-45
2023/03/06 11:38:25;;;;;;;17.30;10.87;;;;;;;;;;4998476;28;20426;-48
2023/03/06 11:40:53;;;;;;;16.93;9.07;;;;;;;;;;4996654;28;20525;-47
2023/03/06 11:43:19;;;;;;;20.83;10.20;;;;;;;;;;4998284;28;20504;-45
2023/03/06 11:45:48;;;;;;;18.90;11.33;;;;;;;;;;4998225;28;20505;-46
2023/03/06 11:48:14;;;;;;;18.87;13.40;;;;;;;;;;4998175;28;20579;-46
2023/03/06 11:50:41;;;;;;;18.40;10.60;;;;;;;;;;4997469;28;20422;-47
2023/03/06 11:53:21;;;;;;;16.43;10.70;;;;;;;;;;4996717;28;20431;-46
2023/03/06 11:56:22;;;;;;;13.30;8.10;;;;;;;;;;4994752;28;20464;-47
2023/03/06 11:59:20;;;;;;;19.33;11.00;;;;;;;;;;5017123;28;20452;-47
2023/03/06 12:02:04;;;;;;;16.43;11.00;;;;;;;;;;4982229;28;20781;-46
2023/03/06 12:04:49;;;;;;;14.80;11.00;;;;;;;;;;4995982;28;20420;-46
2023/03/06 12:07:21;;;;;;;19.87;12.67;;;;;;;;;;4988025;28;20436;-48
2023/03/06 12:09:53;;;;;;;23.80;13.07;;;;;;;;;;4994616;28;20474;-45
2023/03/06 12:12:24;;;;;;;22.10;12.67;;;;;;;;;;4994306;28;20472;-45
2023/03/06 12:15:09;;;;;;;20.27;13.83;;;;;;;;;;4994991;28;20416;-47
2023/03/06 12:17:46;;;;;;;19.60;13.40;;;;;;;;;;4995357;28;20463;-45
2023/03/06 12:20:15;;;;;;;18.50;12.53;;;;;;;;;;4987264;28;20448;-46
2023/03/06 12:22:50;;;;;;;22.30;14.87;;;;;;;;;;4993339;28;20429;-45
2023/03/06 12:25:25;;;;;;;25.77;15.33;;;;;;;;;;4987958;28;20409;-45
2023/03/06 12:27:57;;;;;;;24.70;12.83;;;;;;;;;;4993349;28;20875;-46
2023/03/06 12:30:33;;;;;;;20.30;13.70;;;;;;;;;;4993095;28;20488;-47
2023/03/06 12:33:17;;;;;;;20.50;13.83;;;;;;;;;;4994314;28;21027;-45
2023/03/06 12:35:44;;;;;;;21.03;12.43;;;;;;;;;;4994490;28;20484;-46
2023/03/06 12:38:10;;;;;;;17.77;11.40;;;;;;;;;;4994651;28;20863;-45
2023/03/06 12:40:39;;;;;;;19.57;9.43;;;;;;;;;;4993746;28;20455;-46
2023/03/06 12:43:23;;;;;;;16.83;10.15;;;;;;;;;;4994400;28;20477;-46
2023/03/06 12:45:54;;;;;;;14.30;9.20;;;;;;;;;;4994327;28;20197;-45
2023/03/06 12:48:24;;;;;;;14.47;9.53;;;;;;;;;;4994442;28;20483;-45
2023/03/06 12:50:50;;;;;;;13.33;10.00;;;;;;;;;;4993436;28;20416;-45
2023/03/06 12:53:27;;;;;;;15.20;10.00;;;;;;;;;;4994336;28;20422;-48
2023/03/06 12:55:54;;;;;;;14.70;8.63;;;;;;;;;;4993984;28;20498;-47
2023/03/06 12:58:29;;;;;;;15.00;9.17;;;;;;;;;;4993074;28;20443;-47
2023/03/06 13:01:01;;;;;;;12.23;7.90;;;;;;;;;;4992476;28;20428;-45
2023/03/06 13:03:46;;;;;;;12.30;7.90;;;;;;;;;;4993960;28;20412;-47
2023/03/06 13:06:21;;;;;;;12.60;8.03;;;;;;;;;;4986700;28;20463;-47
2023/03/06 13:08:56;;;;;;;10.50;8.33;;;;;;;;;;4993179;28;20491;-46
2023/03/06 13:11:27;;;;;;;12.50;9.10;;;;;;;;;;4991349;28;20440;-48
2023/03/06 13:13:53;;;;;;;13.93;8.73;;;;;;;;;;4991740;28;20901;-46
2023/03/06 13:16:33;;;;;;;8.77;6.90;;;;;;;;;;4993522;28;20420;-47
2023/03/06 13:19:19;;;;;;;10.30;7.23;;;;;;;;;;4993654;28;20487;-47
2023/03/06 13:21:45;;;;;;;12.23;7.90;;;;;;;;;;4992987;28;20435;-45
2023/03/06 13:24:28;;;;;;;9.10;7.27;;;;;;;;;;4993756;28;20780;-47
2023/03/06 13:26:56;;;;;;;13.93;7.50;;;;;;;;;;4992050;28;20487;-45
2023/03/06 13:29:44;;;;;;;13.33;8.20;;;;;;;;;;4992883;28;20912;-45
2023/03/06 13:32:14;;;;;;;12.97;8.70;;;;;;;;;;4994739;28;20828;-45
2023/03/06 13:34:41;;;;;;;13.63;8.30;;;;;;;;;;4993911;28;20524;-46
2023/03/06 13:37:13;;;;;;;14.00;8.67;;;;;;;;;;4993792;28;20428;-46
2023/03/06 13:39:54;;;;;;;8.93;6.70;;;;;;;;;;4993980;28;20481;-46
2023/03/06 13:42:37;;;;;;;10.87;8.27;;;;;;;;;;4985543;28;20454;-48
2023/03/06 13:45:23;;;;;;;10.73;7.60;;;;;;;;;;4993386;28;20906;-45
2023/03/06 13:47:49;;;;;;;10.33;7.30;;;;;;;;;;4993565;28;20425;-45
2023/03/06 13:50:34;;;;;;;11.57;7.27;;;;;;;;;;4992762;28;20430;-46
2023/03/06 13:53:12;;;;;;;12.37;7.20;;;;;;;;;;4993777;28;20973;-46
2023/03/06 13:55:44;;;;;;;9.77;7.27;;;;;;;;;;4993943;28;20930;-45
2023/03/06 13:58:10;;;;;;;9.07;7.00;;;;;;;;;;4985859;28;20419;-47
2023/03/06 14:00:54;;;;;;;8.50;7.10;;;;;;;;;;4992962;28;20432;-45
2023/03/06 14:03:39;;;;;;;8.20;6.93;;;;;;;;;;4987914;28;20435;-45
2023/03/06 14:06:23;;;;;;;12.27;7.13;;;;;;;;;;4992924;28;20408;-45
2023/03/06 14:08:50;;;;;;;9.60;6.43;;;;;;;;;;4990367;28;20475;-46
2023/03/06 14:11:20;;;;;;;8.33;5.87;;;;;;;;;;4991953;28;20468;-46
2023/03/06 14:13:49;;;;;;;7.37;5.43;;;;;;;;;;4992810;28;20817;-45
2023/03/06 14:16:26;;;;;;;5.87;4.90;;;;;;;;;;4992542;28;20420;-45
2023/03/06 14:18:53;;;;;;;6.73;5.43;;;;;;;;;;4992830;28;20444;-45
2023/03/06 14:21:29;;;;;;;8.13;6.03;;;;;;;;;;4991377;28;20432;-44
2023/03/06 14:24:02;;;;;;;7.13;5.90;;;;;;;;;;4992950;28;20415;-47
2023/03/06 14:26:30;;;;;;;8.93;5.07;;;;;;;;;;4992633;28;20428;-46
2023/03/06 14:28:57;;;;;;;10.00;5.43;;;;;;;;;;4991121;28;20463;-47